createdAt,value
2023-03-04T00:00:29.305Z,59.63
2023-03-04T00:02:57.720Z,60.20
2023-03-04T00:05:28.195Z,58.53
2023-03-04T00:07:57.300Z,54.87
2023-03-04T00:10:26.258Z,60.83
2023-03-04T00:12:55.045Z,61.47
2023-03-04T00:15:25.067Z,55.10
2023-03-04T00:17:56.167Z,63.93
2023-03-04T00:20:24.407Z,56.30
2023-03-04T00:22:52.955Z,57.13
2023-03-04T00:25:21.568Z,63.00
2023-03-04T00:27:50.818Z,54.37
2023-03-04T00:30:19.487Z,50.90
2023-03-04T00:32:49.922Z,54.53
2023-03-04T00:35:18.681Z,59.93
2023-03-04T00:37:47.531Z,60.87
2023-03-04T00:40:15.937Z,56.87
2023-03-04T00:42:44.273Z,58.70
2023-03-04T00:45:13.552Z,57.83
2023-03-04T00:47:44.461Z,58.70
2023-03-04T00:50:16.795Z,59.47
2023-03-04T00:52:45.262Z,58.90
2023-03-04T00:55:14.190Z,57.20
2023-03-04T00:57:44.444Z,67.33
2023-03-04T01:00:26.762Z,56.73
2023-03-04T01:03:17.888Z,55.13
2023-03-04T01:05:47.825Z,53.40
2023-03-04T01:08:17.172Z,51.63
2023-03-04T01:10:46.687Z,57.20
2023-03-04T01:13:15.285Z,53.13
2023-03-04T01:15:44.089Z,61.43
2023-03-04T01:18:12.973Z,57.63
2023-03-04T01:20:43.000Z,55.77
2023-03-04T01:23:12.894Z,54.23
2023-03-04T01:25:44.740Z,53.87
2023-03-04T01:28:13.155Z,53.90
2023-03-04T01:30:43.304Z,56.00
2023-03-04T01:33:11.694Z,53.60
2023-03-04T01:35:40.661Z,50.40
2023-03-04T01:38:09.083Z,55.27
2023-03-04T01:40:40.090Z,55.03
2023-03-04T01:43:08.178Z,52.80
2023-03-04T01:45:39.748Z,50.77
2023-03-04T01:48:11.269Z,55.67
2023-03-04T01:50:40.152Z,50.43
2023-03-04T01:53:08.394Z,57.80
2023-03-04T01:55:38.911Z,47.47
2023-03-04T01:58:11.097Z,50.97
2023-03-04T02:00:39.707Z,50.13
2023-03-04T02:03:11.470Z,54.50
2023-03-04T02:05:42.170Z,58.03
2023-03-04T02:08:11.736Z,53.27
2023-03-04T02:10:43.686Z,53.63
2023-03-04T02:13:12.878Z,53.57
2023-03-04T02:15:41.389Z,64.40
2023-03-04T02:18:17.197Z,56.57
2023-03-04T02:20:54.109Z,48.60
2023-03-04T02:23:27.212Z,53.83
2023-03-04T02:26:15.877Z,49.60
2023-03-04T02:28:44.729Z,48.80
2023-03-04T02:31:23.537Z,52.20
2023-03-04T02:33:53.029Z,46.13
2023-03-04T02:36:21.868Z,51.80
2023-03-04T02:38:51.309Z,56.43
2023-03-04T02:41:25.737Z,49.33
2023-03-04T02:43:56.308Z,50.63
2023-03-04T02:46:25.247Z,51.70
2023-03-04T02:48:54.062Z,48.70
2023-03-04T02:51:22.256Z,57.87
2023-03-04T02:53:50.657Z,54.10
2023-03-04T02:56:20.697Z,56.63
2023-03-04T02:58:48.986Z,53.77
2023-03-04T03:01:17.244Z,47.70
2023-03-04T03:03:45.502Z,50.23
2023-03-04T03:06:13.800Z,53.17
2023-03-04T03:08:41.928Z,52.77
2023-03-04T03:11:10.238Z,50.57
2023-03-04T03:13:40.606Z,54.80
2023-03-04T03:16:09.059Z,52.53
2023-03-04T03:18:37.169Z,56.13
2023-03-04T03:21:05.694Z,55.73
2023-03-04T03:23:34.107Z,49.60
2023-03-04T03:26:02.441Z,49.40
2023-03-04T03:28:30.831Z,43.53
2023-03-04T03:31:00.891Z,52.17
2023-03-04T03:33:30.412Z,55.20
2023-03-04T03:35:58.907Z,54.00
2023-03-04T03:38:27.659Z,57.97
2023-03-04T03:40:56.270Z,54.50
2023-03-04T03:43:24.816Z,47.23
2023-03-04T03:45:53.684Z,53.03
2023-03-04T03:48:23.663Z,51.40
2023-03-04T03:50:52.262Z,58.00
2023-03-04T03:53:20.712Z,49.33
2023-03-04T03:55:49.540Z,52.97
2023-03-04T03:58:17.959Z,51.93
2023-03-04T04:00:46.623Z,51.93
2023-03-04T04:03:17.898Z,50.57
2023-03-04T04:05:48.070Z,57.17
2023-03-04T04:08:16.690Z,57.77
2023-03-04T04:10:45.671Z,56.87
2023-03-04T04:13:13.915Z,53.40
2023-03-04T04:15:42.351Z,54.53
2023-03-04T04:18:11.234Z,54.60
2023-03-04T04:20:39.625Z,61.37
2023-03-04T04:23:09.240Z,55.17
2023-03-04T04:25:37.698Z,54.10
2023-03-04T04:28:06.576Z,56.13
2023-03-04T04:30:34.877Z,51.33
2023-03-04T04:33:05.036Z,51.87
2023-03-04T04:35:34.394Z,52.37
2023-03-04T04:38:02.610Z,46.83
2023-03-04T04:40:35.328Z,46.00
2023-03-04T04:43:03.833Z,45.87
2023-03-04T04:45:32.083Z,52.57
2023-03-04T04:48:00.306Z,52.07
2023-03-04T04:50:30.725Z,49.40
2023-03-04T04:53:00.113Z,45.63
2023-03-04T04:55:28.362Z,50.37
2023-03-04T04:57:58.296Z,45.47
2023-03-04T05:00:26.876Z,51.33
2023-03-04T05:02:55.199Z,46.37
2023-03-04T05:05:23.650Z,45.67
2023-03-04T05:07:51.888Z,49.67
2023-03-04T05:10:20.200Z,47.53
2023-03-04T05:12:48.584Z,46.47
2023-03-04T05:15:18.779Z,47.57
2023-03-04T05:17:47.368Z,46.67
2023-03-04T05:20:15.634Z,42.20
2023-03-04T05:22:44.147Z,46.47
2023-03-04T05:25:12.380Z,47.03
2023-03-04T05:27:40.568Z,40.93
2023-03-04T05:30:10.472Z,38.77
2023-03-04T05:32:40.185Z,40.93
2023-03-04T05:35:09.079Z,41.17
2023-03-04T05:37:37.196Z,46.37
2023-03-04T05:40:06.158Z,36.13
2023-03-04T05:42:34.539Z,39.90
2023-03-04T05:45:02.552Z,42.87
2023-03-04T05:47:30.749Z,41.37
2023-03-04T05:50:00.379Z,46.10
2023-03-04T05:52:28.848Z,45.77
2023-03-04T05:54:57.173Z,44.63
2023-03-04T05:57:25.411Z,41.53
2023-03-04T05:59:53.770Z,44.80
2023-03-04T06:02:24.792Z,46.87
2023-03-04T06:04:53.038Z,45.30
2023-03-04T06:07:22.578Z,41.77
2023-03-04T06:09:50.756Z,48.80
2023-03-04T06:12:18.927Z,39.57
2023-03-04T06:14:49.546Z,42.07
2023-03-04T06:17:18.336Z,46.27
2023-03-04T06:19:46.764Z,45.90
2023-03-04T06:22:15.097Z,46.20
2023-03-04T06:24:45.067Z,43.77
2023-03-04T06:27:13.900Z,45.67
2023-03-04T06:29:42.430Z,40.90
2023-03-04T06:32:10.944Z,38.83
2023-03-04T06:34:39.549Z,44.47
2023-03-04T06:37:07.648Z,44.80
2023-03-04T06:39:36.341Z,40.03
2023-03-04T06:42:05.967Z,42.17
2023-03-04T06:44:34.184Z,43.23
2023-03-04T06:47:02.357Z,47.77
2023-03-04T06:49:30.456Z,52.83
2023-03-04T06:51:58.656Z,45.43
2023-03-04T06:54:26.874Z,46.43
2023-03-04T06:56:54.995Z,41.97
2023-03-04T06:59:24.876Z,47.03
2023-03-04T07:01:53.128Z,48.20
2023-03-04T07:04:22.857Z,43.43
2023-03-04T07:06:51.603Z,46.30
2023-03-04T07:09:20.135Z,46.10
2023-03-04T07:11:49.046Z,38.90
2023-03-04T07:14:17.544Z,45.23
2023-03-04T07:16:47.312Z,39.57
2023-03-04T07:19:15.615Z,40.37
2023-03-04T07:21:43.720Z,47.70
2023-03-04T07:24:11.986Z,40.87
2023-03-04T07:26:40.652Z,43.50
2023-03-04T07:29:10.325Z,44.60
2023-03-04T07:31:39.634Z,38.07
2023-03-04T07:34:13.711Z,43.00
2023-03-04T07:36:42.710Z,40.90
2023-03-04T07:39:14.407Z,38.17
2023-03-04T07:41:44.528Z,41.87
2023-03-04T07:44:14.701Z,36.43
2023-03-04T07:46:43.224Z,37.87
2023-03-04T07:49:16.231Z,44.27
2023-03-04T07:51:44.478Z,41.03
2023-03-04T07:54:13.109Z,39.60
2023-03-04T07:56:43.299Z,35.03
2023-03-04T08:05:28.734Z,41.50
2023-03-04T08:08:17.436Z,38.07
2023-03-04T08:10:51.158Z,35.63
2023-03-04T08:13:23.870Z,41.20
2023-03-04T08:16:14.450Z,42.53
2023-03-04T08:18:45.235Z,39.30
2023-03-04T08:24:59.205Z,39.10
2023-03-04T08:27:27.444Z,41.17
2023-03-04T08:29:55.410Z,39.83
2023-03-04T08:32:23.922Z,39.70
2023-03-04T08:34:57.015Z,38.00
2023-03-04T08:37:30.384Z,39.80
2023-03-04T08:40:00.951Z,39.63
2023-03-04T08:42:30.675Z,39.30
2023-03-04T08:45:00.629Z,40.27
2023-03-04T08:47:32.768Z,40.00
2023-03-04T08:50:07.464Z,34.57
2023-03-04T08:52:36.479Z,40.70
2023-03-04T08:55:10.473Z,38.47
2023-03-04T08:57:39.464Z,33.13
2023-03-04T09:00:11.673Z,35.13
2023-03-04T09:02:42.146Z,34.73
2023-03-04T09:05:12.434Z,33.40
2023-03-04T09:07:44.748Z,33.23
2023-03-04T09:10:15.892Z,38.20
2023-03-04T09:12:45.393Z,38.00
2023-03-04T09:15:16.318Z,32.63
2023-03-04T09:17:47.110Z,35.47
2023-03-04T09:20:16.176Z,36.50
2023-03-04T09:22:47.571Z,36.10
2023-03-04T09:28:04.611Z,30.70
2023-03-04T09:30:34.885Z,36.43
2023-03-04T09:33:03.597Z,40.07
2023-03-04T09:35:32.629Z,39.30
2023-03-04T09:38:01.468Z,30.10
2023-03-04T09:40:37.005Z,27.53
2023-03-04T09:43:20.621Z,33.33
2023-03-04T09:45:53.189Z,29.43
2023-03-04T09:48:26.362Z,28.63
2023-03-04T09:51:08.148Z,26.93
2023-03-04T09:53:47.110Z,28.73
2023-03-04T09:56:18.581Z,27.40
2023-03-04T09:58:57.858Z,22.43
2023-03-04T10:01:32.494Z,27.57
2023-03-04T10:04:06.555Z,28.30
2023-03-04T10:06:38.414Z,32.53
2023-03-04T10:09:15.192Z,28.43
2023-03-04T10:14:53.023Z,32.27
2023-03-04T10:17:24.915Z,34.53
2023-03-04T10:19:58.258Z,31.67
2023-03-04T10:25:27.830Z,33.83
2023-03-04T10:28:00.518Z,29.77
2023-03-04T10:30:44.857Z,34.90
2023-03-04T10:48:46.097Z,26.47
2023-03-04T10:51:33.428Z,23.47
2023-03-04T10:57:11.656Z,26.03
2023-03-04T11:00:20.004Z,25.70
2023-03-04T11:02:55.926Z,25.03
2023-03-04T11:05:26.972Z,28.53
2023-03-04T11:07:57.726Z,29.43
2023-03-04T11:10:52.454Z,31.70
2023-03-04T11:13:23.244Z,27.03
2023-03-04T11:15:56.202Z,29.73
2023-03-04T11:18:33.901Z,28.93
2023-03-04T11:21:04.155Z,28.80
2023-03-04T11:23:42.405Z,30.87
2023-03-04T11:26:17.547Z,33.77
2023-03-04T11:28:50.839Z,24.67
2023-03-04T11:31:24.270Z,36.07
2023-03-04T11:33:58.347Z,34.30
2023-03-04T11:36:37.793Z,30.07
2023-03-04T11:39:15.282Z,31.57
2023-03-04T11:41:55.646Z,29.70
2023-03-04T11:44:25.463Z,27.93
2023-03-04T11:47:13.015Z,30.57
2023-03-04T11:50:09.170Z,27.57
2023-03-04T11:52:58.325Z,31.60
2023-03-04T11:55:35.971Z,25.90
2023-03-04T11:58:12.988Z,28.23
2023-03-04T12:00:44.774Z,27.10
2023-03-04T12:03:29.762Z,28.47
2023-03-04T12:06:06.324Z,28.93
2023-03-04T12:09:04.681Z,30.63
2023-03-04T12:11:40.895Z,30.57
2023-03-04T12:14:22.164Z,27.53
2023-03-04T12:17:14.265Z,26.47
2023-03-04T12:20:27.513Z,30.23
2023-03-04T12:23:06.532Z,34.80
2023-03-04T12:25:46.017Z,27.97
2023-03-04T12:28:41.303Z,27.33
2023-03-04T12:31:20.058Z,27.93
2023-03-04T12:33:57.253Z,25.73
2023-03-04T12:36:34.899Z,30.40
2023-03-04T12:39:17.308Z,27.10
2023-03-04T12:42:01.370Z,20.50
2023-03-04T12:44:35.404Z,23.50
2023-03-04T12:47:12.915Z,25.77
2023-03-04T12:49:47.719Z,22.17
2023-03-04T12:52:18.421Z,20.40
2023-03-04T12:54:51.883Z,18.30
2023-03-04T12:57:23.611Z,23.80
2023-03-04T13:00:03.060Z,19.83
2023-03-04T13:02:35.936Z,20.13
2023-03-04T13:05:22.190Z,21.53
2023-03-04T13:07:55.015Z,18.63
2023-03-04T13:10:26.021Z,21.33
2023-03-04T13:12:59.469Z,19.90
2023-03-04T13:15:34.767Z,18.17
2023-03-04T13:18:07.905Z,23.03
2023-03-04T13:20:43.396Z,22.47
2023-03-04T13:23:32.228Z,26.07
2023-03-04T13:26:19.375Z,21.43
2023-03-04T13:29:06.396Z,22.27
2023-03-04T13:34:46.157Z,22.67
2023-03-04T13:37:56.894Z,20.07
2023-03-04T13:40:29.319Z,23.10
2023-03-04T13:43:18.342Z,21.23
2023-03-04T13:45:49.685Z,18.83
2023-03-04T13:48:31.133Z,22.67
2023-03-04T13:51:00.264Z,24.83
2023-03-04T13:53:48.496Z,23.83
2023-03-04T13:56:35.293Z,22.50
2023-03-04T13:59:23.254Z,19.67
2023-03-04T14:02:19.843Z,19.67
2023-03-04T14:04:58.577Z,22.60
2023-03-04T14:07:31.698Z,21.83
2023-03-04T14:10:18.661Z,21.90
2023-03-04T14:15:47.327Z,21.40
2023-03-04T14:18:17.482Z,21.43
2023-03-04T14:20:53.029Z,24.80
2023-03-04T14:23:28.013Z,20.17
2023-03-04T14:26:12.188Z,19.07
2023-03-04T14:28:49.694Z,22.00
2023-03-04T14:35:00.693Z,20.90
2023-03-04T14:37:39.453Z,22.87
2023-03-04T14:40:09.435Z,18.40
2023-03-04T14:42:47.111Z,18.83
2023-03-04T14:45:18.486Z,20.30
2023-03-04T14:47:48.738Z,18.27
2023-03-04T14:50:21.582Z,19.47
2023-03-04T14:52:52.333Z,18.70
2023-03-04T14:55:25.581Z,17.67
2023-03-04T14:57:58.705Z,14.37
2023-03-04T15:00:33.112Z,18.77
2023-03-04T15:03:04.578Z,16.07
2023-03-04T15:05:36.998Z,15.67
2023-03-04T15:08:07.690Z,15.70
2023-03-04T15:10:38.944Z,18.53
2023-03-04T15:13:09.785Z,16.70
2023-03-04T15:15:41.682Z,15.67
2023-03-04T15:18:27.004Z,17.23
2023-03-04T15:24:14.604Z,16.00
2023-03-04T15:26:46.192Z,20.50
2023-03-04T15:29:17.262Z,18.23
2023-03-04T15:31:48.482Z,16.20
2023-03-04T15:34:21.347Z,17.67
2023-03-04T15:36:52.436Z,17.23
2023-03-04T15:39:23.482Z,15.37
2023-03-04T15:41:52.217Z,16.00
2023-03-04T15:44:20.983Z,16.27
2023-03-04T15:46:49.885Z,15.27
2023-03-04T15:49:18.673Z,17.93
2023-03-04T15:51:51.408Z,16.63
2023-03-04T15:54:23.635Z,20.00
2023-03-04T15:56:51.959Z,18.23
2023-03-04T15:59:20.743Z,19.53
2023-03-04T16:01:49.129Z,16.07
2023-03-04T16:04:18.884Z,14.80
2023-03-04T16:06:50.509Z,21.37
2023-03-04T16:09:42.442Z,16.10
2023-03-04T16:12:14.071Z,16.57
2023-03-04T16:14:44.524Z,19.23
2023-03-04T16:17:13.438Z,17.73
2023-03-04T16:19:41.944Z,21.90
2023-03-04T16:22:11.684Z,18.50
2023-03-04T16:24:40.296Z,17.17
2023-03-04T16:27:14.348Z,20.93
2023-03-04T16:29:43.378Z,14.57
2023-03-04T16:32:12.871Z,18.47
2023-03-04T16:34:42.012Z,19.93
2023-03-04T16:37:19.386Z,19.23
2023-03-04T16:39:49.792Z,17.53
2023-03-04T16:42:41.823Z,20.53
2023-03-04T16:45:18.365Z,16.17
2023-03-04T16:47:52.473Z,17.40
2023-03-04T16:50:28.497Z,19.17
2023-03-04T16:52:58.897Z,16.60
2023-03-04T16:55:30.652Z,20.00
2023-03-04T16:58:05.493Z,19.43
2023-03-04T17:00:36.138Z,16.93
2023-03-04T17:03:17.309Z,16.63
2023-03-04T17:05:59.949Z,21.50
2023-03-04T17:08:29.873Z,19.17
2023-03-04T17:10:58.361Z,19.30
2023-03-04T17:13:27.817Z,19.13
2023-03-04T17:16:00.848Z,19.53
2023-03-04T17:18:28.859Z,23.37
2023-03-04T17:21:04.465Z,18.93
2023-03-04T17:23:32.640Z,21.13
2023-03-04T17:26:00.850Z,17.77
2023-03-04T17:28:30.967Z,19.90
2023-03-04T17:30:59.556Z,24.10
2023-03-04T17:33:28.268Z,17.10
2023-03-04T17:35:57.852Z,20.27
2023-03-04T17:38:26.489Z,20.50
2023-03-04T17:40:57.549Z,22.73
2023-03-04T17:43:26.364Z,19.23
2023-03-04T17:46:04.477Z,21.77
2023-03-04T17:48:32.854Z,25.97
2023-03-04T17:51:04.576Z,23.90
2023-03-04T17:53:33.309Z,21.37
2023-03-04T17:56:03.665Z,20.47
2023-03-04T17:58:35.616Z,26.60
2023-03-04T18:01:09.425Z,19.13
2023-03-04T18:03:37.599Z,22.03
2023-03-04T18:06:06.217Z,18.20
2023-03-04T18:08:34.512Z,19.60
2023-03-04T18:11:02.648Z,18.50
2023-03-04T18:13:31.242Z,16.73
2023-03-04T18:16:02.758Z,17.57
2023-03-04T18:18:32.480Z,21.07
2023-03-04T18:21:01.369Z,16.67
2023-03-04T18:23:30.105Z,13.23
2023-03-04T18:25:58.761Z,20.53
2023-03-04T18:28:27.278Z,20.50
2023-03-04T18:30:57.053Z,20.77
2023-03-04T18:33:26.095Z,19.03
2023-03-04T18:36:00.559Z,20.37
2023-03-04T18:38:29.872Z,17.87
2023-03-04T18:49:42.524Z,22.53
2023-03-04T18:52:13.300Z,25.00
2023-03-04T18:54:42.999Z,19.97
2023-03-04T18:57:14.762Z,21.83
2023-03-04T18:59:48.188Z,23.50
2023-03-04T19:02:21.670Z,18.50
2023-03-04T19:04:51.712Z,21.57
2023-03-04T19:07:21.688Z,23.73
2023-03-04T19:09:50.131Z,18.93
2023-03-04T19:12:19.032Z,19.20
2023-03-04T19:14:49.598Z,17.73
2023-03-04T19:17:18.828Z,21.30
2023-03-04T19:19:47.452Z,18.90
2023-03-04T19:22:17.717Z,21.63
2023-03-04T19:24:48.501Z,18.63
2023-03-04T19:27:23.247Z,17.43
2023-03-04T19:30:13.995Z,20.20
2023-03-04T19:32:49.396Z,23.60
2023-03-04T19:35:19.907Z,21.50
2023-03-04T19:37:59.710Z,20.33
2023-03-04T19:48:06.114Z,21.20
2023-03-04T19:50:56.774Z,20.80
2023-03-04T19:59:54.188Z,17.50
2023-03-04T20:06:12.259Z,19.17
2023-03-04T20:08:59.386Z,24.10
2023-03-04T20:14:14.698Z,20.93
2023-03-04T20:16:46.925Z,17.90
2023-03-04T20:19:17.525Z,19.27
2023-03-04T20:21:48.220Z,23.63
2023-03-04T20:24:26.985Z,22.87
2023-03-04T20:26:58.573Z,18.37
2023-03-04T20:29:28.978Z,22.80
2023-03-04T20:31:59.811Z,20.33
2023-03-04T20:34:30.419Z,22.87
2023-03-04T20:37:00.432Z,26.53
2023-03-04T20:39:34.006Z,23.60
2023-03-04T20:42:04.076Z,21.07
2023-03-04T20:44:52.308Z,22.20
2023-03-04T20:47:21.848Z,21.93
2023-03-04T20:49:56.864Z,21.97
2023-03-04T20:52:26.409Z,24.63
2023-03-04T20:54:59.181Z,17.90
2023-03-04T20:57:29.500Z,21.03
2023-03-04T21:00:01.187Z,17.73
2023-03-04T21:02:44.012Z,20.37
2023-03-04T21:05:14.255Z,25.37
2023-03-04T21:07:48.997Z,20.60
2023-03-04T21:10:19.927Z,17.67
2023-03-04T21:12:49.014Z,21.53
2023-03-04T21:15:17.401Z,21.33
2023-03-04T21:17:47.099Z,21.93
2023-03-04T21:20:16.948Z,23.40
2023-03-04T21:22:46.623Z,25.80
2023-03-04T21:25:14.714Z,20.90
2023-03-04T21:27:44.674Z,23.37
2023-03-04T21:30:13.819Z,20.33
2023-03-04T21:32:42.570Z,21.00
2023-03-04T21:35:15.345Z,23.27
2023-03-04T21:37:43.726Z,20.33
2023-03-04T21:40:13.603Z,20.67
2023-03-04T21:42:43.982Z,25.80
2023-03-04T21:45:13.435Z,21.77
2023-03-04T21:47:41.776Z,22.10
2023-03-04T21:50:10.794Z,22.90
2023-03-04T21:52:39.064Z,20.47
2023-03-04T21:55:08.756Z,19.77
2023-03-04T21:57:39.264Z,31.87
2023-03-04T22:00:10.806Z,22.13
2023-03-04T22:02:38.945Z,20.73
2023-03-04T22:05:07.764Z,20.97
2023-03-04T22:07:36.201Z,24.33
2023-03-04T22:10:06.708Z,23.83
2023-03-04T22:12:36.944Z,20.43
2023-03-04T22:15:05.544Z,20.03
2023-03-04T22:17:37.648Z,25.00
2023-03-04T22:20:08.832Z,25.87
2023-03-04T22:22:37.562Z,22.37
2023-03-04T22:25:10.318Z,21.97
2023-03-04T22:27:41.168Z,18.43
2023-03-04T22:30:18.534Z,29.33
2023-03-04T22:32:54.353Z,23.10
2023-03-04T22:35:32.773Z,28.70
2023-03-04T22:38:03.966Z,21.83
2023-03-04T22:40:37.111Z,24.97
2023-03-04T22:43:17.134Z,23.70
2023-03-04T22:45:45.972Z,23.23
2023-03-04T22:48:15.729Z,23.47
2023-03-04T22:50:44.184Z,27.57
2023-03-04T22:53:12.684Z,28.93
2023-03-04T22:55:43.544Z,24.90
2023-03-04T22:58:11.979Z,33.87
2023-03-04T23:00:41.066Z,29.20
2023-03-04T23:03:10.750Z,25.77
2023-03-04T23:05:40.654Z,22.53
2023-03-04T23:08:13.047Z,25.00
2023-03-04T23:10:44.462Z,29.17
2023-03-04T23:13:18.035Z,24.07
2023-03-04T23:15:49.015Z,29.00
2023-03-04T23:18:18.269Z,25.37
2023-03-04T23:20:49.548Z,23.77
2023-03-04T23:23:21.824Z,31.13
2023-03-04T23:25:52.177Z,29.43
2023-03-04T23:28:23.527Z,22.60
2023-03-04T23:30:51.886Z,25.80
2023-03-04T23:33:20.102Z,26.07
2023-03-04T23:35:50.071Z,26.57
2023-03-04T23:38:24.538Z,23.43
2023-03-04T23:40:53.167Z,25.27
2023-03-04T23:43:27.400Z,30.43
2023-03-04T23:45:56.559Z,27.17
2023-03-04T23:48:25.444Z,28.13
2023-03-04T23:50:56.516Z,26.87
2023-03-04T23:53:25.119Z,29.13
2023-03-04T23:55:53.404Z,25.27
2023-03-04T23:58:21.662Z,22.97
